LiveATC.Net - Listen to live air traffic control over the Internet!


ICAO: SBBI  IATA: BFH   Airport: Bacacheri Airport
City: Curitiba
Country: Brazil   Continent: South America
SBBI METAR Weather: SBBI 261100Z 12006KT 8000 OVC005 18/18 Q1021
SBBI Flight Activity (FlightAware)

SBBI Gnd/Twr
Feed Status: UP   Listeners: 0
Listen in your browser - HTML5 player (in browser, HTML5)
Click here to listen with your own player (launches your MP3 player)
SBBI Gnd/Twr Audio Archives
FacilityFrequency
Bacacheri Ground121.800
Bacacheri Tower118.900

NOTICE

Unauthorized use prohibited. See LiveATC.net Terms of Service


Find LiveATC Audio Streams


Airport/ARTCC Code

Frequency Search
(e.g., 124.400, 128.75)
Site-wide search
 


Browse LiveATC Feeds
Top 50 LiveATC Feeds
LiveATC Feed Map
Bad Weather Areas

LiveATC FAQ
Offer LiveATC feed
Contact LiveATC.net
Press Inquiries

LiveATC on iPhone
LiveATC on Android

Windows Phone
Windows 8/10

LiveATC Mobile
(Mobile browser)

ATC Audio Archives
Interesting Recordings

LiveATC Forums


Home Page
About LiveATC.net
Make a Donation
Terms of Use
Privacy Policy

Canadian Air Freqs

AIRMETs/SIGMETs

FAA Airport Status
Nat'l Airspace Status
Arrival Demand Charts


Server Software By:
Icecast.org
Liquidsoap